Map

Track Data

SID SEASON NUMBER BASIN SUBBASIN NAME ISO_TIME NATURE LAT LON WMO_WIND WMO_PRES WMO_AGENCY TRACK_TYPE DIST2LAND LANDFALL IFLAG USA_AGENCY USA_ATCF_ID USA_LAT USA_LON USA_RECORD USA_STATUS USA_WIND USA_PRES USA_SSHS USA_R34_NE USA_R34_SE USA_R34_SW USA_R34_NW USA_R50_NE USA_R50_SE USA_R50_SW USA_R50_NW USA_R64_NE USA_R64_SE USA_R64_SW USA_R64_NW USA_POCI USA_ROCI USA_RMW USA_EYE TOKYO_LAT TOKYO_LON TOKYO_GRADE TOKYO_WIND TOKYO_PRES TOKYO_R50_DIR TOKYO_R50_LONG TOKYO_R50_SHORT TOKYO_R30_DIR TOKYO_R30_LONG TOKYO_R30_SHORT TOKYO_LAND CMA_LAT CMA_LON CMA_CAT CMA_WIND CMA_PRES HKO_LAT HKO_LON HKO_CAT HKO_WIND HKO_PRES NEWDELHI_LAT NEWDELHI_LON NEWDELHI_GRADE NEWDELHI_WIND NEWDELHI_PRES NEWDELHI_CI NEWDELHI_DP NEWDELHI_POCI REUNION_LAT REUNION_LON REUNION_TYPE REUNION_WIND REUNION_PRES REUNION_TNUM REUNION_CI REUNION_RMW REUNION_R34_NE REUNION_R34_SE REUNION_R34_SW REUNION_R34_NW REUNION_R50_NE REUNION_R50_SE REUNION_R50_SW REUNION_R50_NW REUNION_R64_NE REUNION_R64_SE REUNION_R64_SW REUNION_R64_NW BOM_LAT BOM_LON BOM_TYPE BOM_WIND BOM_PRES BOM_TNUM BOM_CI BOM_RMW BOM_R34_NE BOM_R34_SE BOM_R34_SW BOM_R34_NW BOM_R50_NE BOM_R50_SE BOM_R50_SW BOM_R50_NW BOM_R64_NE BOM_R64_SE BOM_R64_SW BOM_R64_NW BOM_ROCI BOM_POCI BOM_EYE BOM_POS_METHOD BOM_PRES_METHOD NADI_LAT NADI_LON NADI_CAT NADI_WIND NADI_PRES WELLINGTON_LAT WELLINGTON_LON WELLINGTON_WIND WELLINGTON_PRES DS824_LAT DS824_LON DS824_STAGE DS824_WIND DS824_PRES TD9636_LAT TD9636_LON TD9636_STAGE TD9636_WIND TD9636_PRES TD9635_LAT TD9635_LON TD9635_WIND TD9635_PRES TD9635_ROCI NEUMANN_LAT NEUMANN_LON NEUMANN_CLASS NEUMANN_WIND NEUMANN_PRES MLC_LAT MLC_LON MLC_CLASS MLC_WIND MLC_PRES USA_GUST BOM_GUST BOM_GUST_PER REUNION_GUST REUNION_GUST_PER USA_SEAHGT USA_SEARAD_NE USA_SEARAD_SE USA_SEARAD_SW USA_SEARAD_NW STORM_SPEED STORM_DIR
1979266N18150 1979 93 WP MM PAMELA 1979-09-23 00:00:00 TS 18.0000 150.000 main 2135 2097 O________OO___ jtwc_wp WP201979 18.0000 150.000 15 -1 18.0000 150.000 TC 15 18.0000 150.000 1 15 12 280
1979266N18150 1979 93 WP MM PAMELA 1979-09-23 03:00:00 TS 18.1001 149.399 main 2097 2061 P________PP___ WP201979 18.1128 149.403 15 -1 18.1128 149.403 TC 15 18.0748 149.391 1 15 12 279
1979266N18150 1979 93 WP MM PAMELA 1979-09-23 06:00:00 TS 18.1830 148.795 main 2061 2037 O________OP___ jtwc_wp WP201979 18.2000 148.800 15 -1 18.2000 148.800 TC 15 18.1489 148.785 1 15 12 277
1979266N18150 1979 93 WP MM PAMELA 1979-09-23 09:00:00 TS 18.2411 148.191 main 2037 2003 P________PP___ WP201979 18.2499 148.192 15 -1 18.2499 148.192 TC 15 18.2235 148.187 1 15 11 276
1979266N18150 1979 93 WP MM PAMELA 1979-09-23 12:00:00 TS 18.3000 147.600 main 2003 1974 O________OO___ jtwc_wp WP201979 18.3000 147.600 15 -1 18.3000 147.600 TC 15 18.3000 147.600 1 15 11 278
1979266N18150 1979 93 WP MM PAMELA 1979-09-23 15:00:00 TS 18.3929 147.029 main 1971 1943 P________PP___ WP201979 18.3999 147.028 15 -1 18.3999 147.028 TC 15 18.3789 147.031 1 15 11 280
1979266N18150 1979 93 WP MM PAMELA 1979-09-23 18:00:00 TS 18.4858 146.498 main 1943 1927 O________OP___ jtwc_wp WP201979 18.5000 146.500 15 -1 18.5000 146.500 TC 15 18.4574 146.495 1 15 10 279
1979266N18150 1979 93 WP MM PAMELA 1979-09-23 21:00:00 TS 18.5490 146.012 main 1927 1905 P________PP___ WP201979 18.5574 146.012 15 -1 18.5574 146.012 TC 15 18.5322 146.012 1 15 9 278
1979266N18150 1979 93 WP MM PAMELA 1979-09-24 00:00:00 TS 18.6000 145.600 main 1905 1896 O________OO___ jtwc_wp WP201979 18.6000 145.600 15 -1 18.6000 145.600 TC 15 18.6000 145.600 1 15 7 278
1979266N18150 1979 93 WP MM PAMELA 1979-09-24 03:00:00 TS 18.6494 145.268 main 1896 1877 P________PP___ WP201979 18.6499 145.262 15 -1 18.6499 145.262 TC 15 18.6483 145.278 1 16 6 280
1979266N18150 1979 93 WP MM PAMELA 1979-09-24 06:00:00 TS 18.6972 145.008 main 1877 1869 O________OP___ jtwc_wp WP201979 18.7000 145.000 15 -1 18.7000 145.000 TC 15 18.6916 145.025 1 17 5 282
1979266N18150 1979 93 WP MM PAMELA 1979-09-24 09:00:00 TS 18.7413 144.798 main 1869 1850 P________PP___ WP201979 18.7424 144.792 17 -1 18.7424 144.792 TC 17 18.7391 144.809 1 18 4 285
1979266N18150 1979 93 WP MM PAMELA 1979-09-24 12:00:00 TS 18.8000 144.600 main 1850 1830 O________OO___ jtwc_wp WP201979 18.8000 144.600 20 -1 18.8000 144.600 TC 20 18.8000 144.600 1 20 4 290
1979266N18150 1979 93 WP MM PAMELA 1979-09-24 15:00:00 TS 18.8887 144.362 main 1830 1806 P________PP___ WP201979 18.8925 144.358 22 -1 18.8925 144.358 TC 22 18.8812 144.370 1 23 5 293
1979266N18150 1979 93 WP MM PAMELA 1979-09-24 18:00:00 TS 18.9923 144.112 main 1806 1787 O________OP___ jtwc_wp WP201979 19.0000 144.100 25 -1 19.0000 144.100 TC 25 18.9770 144.137 1 27 5 294
1979266N18150 1979 93 WP MM PAMELA 1979-09-24 21:00:00 TS 19.0947 143.867 main 1787 1778 P________PP___ WP201979 19.0999 143.857 30 -1 19.0999 143.857 TC 30 19.0843 143.886 1 31 4 291
1979266N18150 1979 93 WP MM PAMELA 1979-09-25 00:00:00 TS 19.1467 143.687 1000 tokyo main 1778 1755 OOOO_____OO___ jtwc_wp WP201979 19.2000 143.600 35 0 19.0000 144.000 2 1000 0 0 0 18.8000 144.100 1 23 1004 19.0000 144.000 TD 25 1000 19.2000 143.600 TC 35 19.2000 143.600 2 35 5 281
1979266N18150 1979 93 WP MM PAMELA 1979-09-25 03:00:00 TS 19.1902 143.341 main 1751 1724 PPPP_____PP___ WP201979 19.2924 143.330 40 0 19.0681 143.322 2 999 0 0 18.8659 143.347 1 26 1002 19.0227 143.465 TD 27 1000 19.2924 143.330 TC 40 19.2927 143.309 2 36 8 279
1979266N18150 1979 93 WP MM PAMELA 1979-09-25 06:00:00 TS 19.2707 142.895 998 tokyo main 1724 1694 OOOO_____OP___ jtwc_wp WP201979 19.4000 143.000 45 0 19.2000 142.700 2 998 0 0 0 19.0000 142.700 1 29 1000 19.1000 142.900 TD 30 1000 19.4000 143.000 TC 45 19.3962 142.976 2 37 9 285
1979266N18150 1979 93 WP MM PAMELA 1979-09-25 09:00:00 TS 19.4189 142.409 main 1694 1655 PPPP_____PP___ WP201979 19.5198 142.595 42 0 19.4347 142.170 2 997 0 0 19.2420 142.220 1 33 999 19.2700 142.293 TD 32 998 19.5198 142.595 TC 42 19.5267 142.580 2 38 10 291
1979266N18150 1979 93 WP MM PAMELA 1979-09-25 12:00:00 TS 19.6333 141.917 35 996 tokyo main 1655 1616 OOOO_____OO___ jtwc_wp WP201979 19.7000 142.100 40 0 19.7000 141.700 3 35 996 0 9 80 80 0 19.5000 141.800 2 38 998 19.5000 141.700 TS 35 996 19.7000 142.100 TC 40 19.7000 142.100 2 40 11 294
1979266N18150 1979 93 WP MM PAMELA 1979-09-25 15:00:00 TS 19.8471 141.388 main 1616 1565 PPPP_____PP___ WP201979 19.9848 141.545 37 0 19.8998 141.250 3 37 995 0 9 80 80 19.6271 141.337 2 38 996 19.7423 141.177 TS 35 995 19.9848 141.545 TC 37 19.8441 141.473 2 38 11 294
1979266N18150 1979 93 WP MM PAMELA 1979-09-25 18:00:00 TS 20.0904 140.812 40 994 tokyo main 1565 1518 OOOO_____OP___ jtwc_wp WP201979 20.3000 140.900 35 0 20.1000 140.800 3 40 994 0 9 80 80 0 19.8000 140.800 2 38 995 20.0000 140.700 TS 35 994 20.3000 140.900 TC 35 20.0423 140.770 2 37 12 293
1979266N18150 1979 93 WP MM PAMELA 1979-09-25 21:00:00 TS 20.3224 140.212 main 1518 1447 PPPP_____PP___ WP201979 20.5050 140.171 35 0 20.2817 140.374 3 37 995 0 9 70 70 20.1171 140.167 2 38 995 20.1813 140.331 TS 35 994 20.5050 140.171 TC 35 20.3441 140.057 2 36 13 297
1979266N18150 1979 93 WP MM PAMELA 1979-09-26 00:00:00 TS 20.6870 139.539 35 996 tokyo main 1441 1355 OOOO_____OO___ jtwc_wp WP201979 20.8000 139.400 35 0 20.6000 139.800 3 35 996 0 9 60 60 0 20.6000 139.400 2 38 995 20.5000 139.800 TS 35 994 20.8000 139.400 TC 35 20.8000 139.400 2 35 17 304
1979266N18150 1979 93 WP MM PAMELA 1979-09-26 03:00:00 TS 21.2679 138.724 main 1340 1236 PPPP_____PP___ WP201979 21.2806 138.561 32 -1 21.2056 138.911 3 998 0 9 21.2539 138.493 2 33 997 21.1335 138.826 TS 30 995 21.2806 138.561 TC 32 21.4463 138.878 2 32 20 312
1979266N18150 1979 93 WP MM PAMELA 1979-09-26 06:00:00 TS 22.0206 137.956 1000 tokyo main 1236 1129 OOOO_____OP___ jtwc_wp WP201979 22.0000 137.900 30 -1 21.9000 137.900 2 1000 0 0 0 22.0000 137.500 1 29 1000 21.9000 137.700 TD 25 996 22.0000 137.900 TC 30 22.2478 138.418 2 30 20 327
1979266N18150 1979 93 WP MM PAMELA 1979-09-26 09:00:00 TS 22.9251 137.556 main 1129 1018 PP_P_____PP___ WP201979 22.9968 137.695 27 -1 22.4902 136.968 2 1002 0 0 1 22.6224 136.701 TD 25 997 22.9968 137.695 TC 27 23.1504 137.999 2 27 20 342
1979266N18150 1979 93 WP MM PAMELA 1979-09-26 12:00:00 TS 23.9273 137.300 1004 tokyo main 1018 918 OO_O_____OO___ jtwc_wp WP201979 24.1000 137.600 25 -1 23.0000 136.100 2 1004 0 0 0 23.3000 135.800 TD 25 998 24.1000 137.600 TC 25 24.1000 137.600 1 25 22 353
1979266N18150 1979 93 WP MM PAMELA 1979-09-26 15:00:00 TS 25.0794 137.256 main 909 799 P________PP___ WP201979 25.0931 137.283 22 -1 2 0 0 TD 25.0931 137.283 TC 22 25.0520 137.202 1 22 21 348
1979266N18150 1979 93 WP MM PAMELA 1979-09-26 18:00:00 TS 26.0000 136.800 main 799 O________OO___ jtwc_wp WP201979 26.0000 136.800 20 -1 26.0000 136.800 TC 20 26.0000 136.800 6 20 20 336

Digital Typhoon Data and Search

About IBTrACS Database

This database is a web-friendly format of International Best Track Archive for Climate Stewardship (IBTrACS), a global best track data archive curated by NOAA dating back to 1842.

Updated: 2021-10-08